Time;durP1;ratioP1;P1;durP2;ratioP2;P2;SDS_P1;SDS_P2;PMS_P1;PMS_P2;Temp;Humidity;BMP_temperature;BMP_pressure;BME280_temperature;BME280_humidity;BME280_pressure;Samples;Min_cycle;Max_cycle;Signal;HPM_P1;HPM_P2
2023/04/23 00:00:14;;;;;;;19.33;14.85;;;7.70;99.90;;;;;;5046181;28;20567;-64
2023/04/23 00:02:48;;;;;;;18.77;14.27;;;7.60;99.90;;;;;;5045385;28;20047;-63
2023/04/23 00:05:15;;;;;;;18.33;14.18;;;7.60;99.90;;;;;;5043220;28;20074;-61
2023/04/23 00:07:41;;;;;;;20.70;16.08;;;7.60;99.90;;;;;;5044223;28;20029;-64
2023/04/23 00:10:08;;;;;;;21.95;15.57;;;7.60;99.90;;;;;;5043148;28;20091;-63
2023/04/23 00:12:34;;;;;;;20.92;16.67;;;7.60;99.90;;;;;;5045690;28;20048;-65
2023/04/23 00:15:01;;;;;;;22.83;17.30;;;7.60;99.90;;;;;;5054555;28;20408;-62
2023/04/23 00:17:27;;;;;;;21.35;16.25;;;7.60;99.90;;;;;;5052995;28;20136;-64
2023/04/23 00:19:53;;;;;;;20.63;16.40;;;7.60;99.90;;;;;;5044169;28;20563;-62
2023/04/23 00:22:19;;;;;;;22.17;15.65;;;7.60;99.90;;;;;;5053492;28;20049;-62
2023/04/23 00:24:45;;;;;;;22.90;17.30;;;7.60;99.90;;;;;;5056978;28;20049;-63
2023/04/23 00:27:11;;;;;;;21.77;17.58;;;7.60;99.90;;;;;;5044184;28;20087;-65
2023/04/23 00:29:37;;;;;;;23.42;17.92;;;7.60;99.90;;;;;;5041752;28;20037;-63
2023/04/23 00:32:04;;;;;;;23.27;18.00;;;7.60;99.90;;;;;;5044488;28;20039;-63
2023/04/23 00:34:29;;;;;;;21.77;17.10;;;7.60;99.90;;;;;;5045106;28;20496;-61
2023/04/23 00:36:55;;;;;;;29.88;18.73;;;7.60;99.90;;;;;;5043409;28;20057;-62
2023/04/23 00:39:21;;;;;;;21.80;17.60;;;7.50;99.90;;;;;;5043213;28;20060;-62
2023/04/23 00:41:47;;;;;;;26.30;17.92;;;7.50;99.90;;;;;;5044578;28;20037;-62
2023/04/23 00:44:13;;;;;;;27.08;18.33;;;7.50;99.90;;;;;;5052324;28;20049;-63
2023/04/23 00:46:38;;;;;;;29.45;19.42;;;7.50;99.90;;;;;;5041804;28;20043;-63
2023/04/23 00:49:04;;;;;;;27.40;19.50;;;7.60;99.90;;;;;;5043049;28;20041;-62
2023/04/23 00:51:31;;;;;;;25.38;19.45;;;7.60;99.90;;;;;;5044022;28;20116;-65
2023/04/23 00:53:57;;;;;;;28.35;21.08;;;7.60;99.90;;;;;;5044000;28;20045;-63
2023/04/23 00:56:24;;;;;;;32.33;22.83;;;7.60;99.90;;;;;;5042411;28;20484;-62
2023/04/23 00:58:53;;;;;;;31.27;22.40;;;7.60;99.90;;;;;;5043498;28;20037;-62
2023/04/23 01:01:20;;;;;;;33.60;25.25;;;7.60;99.90;;;;;;5038921;28;20052;-66
2023/04/23 01:03:51;;;;;;;39.33;26.80;;;7.70;99.90;;;;;;5055376;28;20507;-64
2023/04/23 01:06:17;;;;;;;37.63;26.42;;;7.70;99.90;;;;;;5044043;28;20041;-64
2023/04/23 01:08:44;;;;;;;40.28;28.42;;;7.70;99.90;;;;;;5042015;28;20045;-61
2023/04/23 01:11:13;;;;;;;41.80;29.63;;;7.70;99.90;;;;;;5042316;28;20107;-63
2023/04/23 01:13:41;;;;;;;45.83;30.45;;;7.70;99.90;;;;;;5043671;28;20071;-64
2023/04/23 01:16:07;;;;;;;44.33;30.95;;;7.70;99.90;;;;;;5044854;28;20045;-61
2023/04/23 01:18:33;;;;;;;42.53;28.95;;;7.80;99.90;;;;;;5044500;28;20102;-62
2023/04/23 01:20:59;;;;;;;49.53;31.75;;;7.80;99.90;;;;;;5043007;28;20049;-61
2023/04/23 01:23:26;;;;;;;52.28;33.42;;;7.80;99.90;;;;;;5043804;28;20053;-61
2023/04/23 01:25:53;;;;;;;47.15;31.38;;;7.80;99.90;;;;;;5051279;28;20037;-62
2023/04/23 01:28:19;;;;;;;47.13;32.08;;;7.80;99.90;;;;;;5044459;28;20052;-61
2023/04/23 01:30:46;;;;;;;47.25;30.80;;;7.80;99.90;;;;;;5043732;28;20064;-62
2023/04/23 01:33:12;;;;;;;42.53;30.25;;;7.90;99.90;;;;;;5059789;28;20041;-62
2023/04/23 01:35:40;;;;;;;47.95;33.05;;;7.80;99.90;;;;;;5042920;28;20049;-62
2023/04/23 01:38:09;;;;;;;52.40;34.85;;;7.80;99.90;;;;;;5040723;28;20098;-62
2023/04/23 01:40:34;;;;;;;51.90;33.90;;;7.80;99.90;;;;;;5046240;28;20044;-62
2023/04/23 01:43:00;;;;;;;53.00;34.88;;;7.80;99.90;;;;;;5041573;28;20047;-61
2023/04/23 01:45:26;;;;;;;49.75;33.03;;;7.80;99.90;;;;;;5042056;28;20086;-62
2023/04/23 01:47:52;;;;;;;49.85;33.58;;;7.80;99.90;;;;;;5044801;28;20029;-64
2023/04/23 01:50:20;;;;;;;46.15;31.98;;;7.70;99.90;;;;;;5041718;28;20040;-61
2023/04/23 01:52:46;;;;;;;50.80;34.28;;;7.70;99.90;;;;;;5052543;28;20088;-63
2023/04/23 01:55:13;;;;;;;54.72;35.15;;;7.70;99.90;;;;;;5038551;28;20072;-63
2023/04/23 01:57:39;;;;;;;50.45;33.55;;;7.70;99.90;;;;;;5053556;28;20556;-63
2023/04/23 02:00:08;;;;;;;48.22;33.28;;;7.60;99.90;;;;;;5050195;28;20025;-62
2023/04/23 02:02:38;;;;;;;46.55;31.65;;;7.60;99.90;;;;;;5055772;28;20396;-63
2023/04/23 02:05:08;;;;;;;50.55;34.08;;;7.60;99.90;;;;;;5041883;28;20053;-65
2023/04/23 02:07:35;;;;;;;49.92;33.78;;;7.60;99.90;;;;;;5033575;28;20053;-65
2023/04/23 02:10:01;;;;;;;49.72;32.67;;;7.50;99.90;;;;;;5046270;28;20053;-61
2023/04/23 02:12:27;;;;;;;56.58;35.85;;;7.50;99.90;;;;;;5047264;28;20041;-63
2023/04/23 02:14:53;;;;;;;48.67;32.53;;;7.40;99.90;;;;;;5046088;28;20040;-63
2023/04/23 02:17:23;;;;;;;50.78;34.25;;;7.40;99.90;;;;;;5042615;28;20056;-64
2023/04/23 02:19:49;;;;;;;48.88;33.13;;;7.30;99.90;;;;;;5046726;28;20384;-61
2023/04/23 02:22:15;;;;;;;47.33;32.88;;;7.30;99.90;;;;;;5045694;28;20131;-63
2023/04/23 02:24:41;;;;;;;48.55;33.45;;;7.30;99.90;;;;;;5047591;28;20040;-64
2023/04/23 02:27:08;;;;;;;47.60;33.17;;;7.20;99.90;;;;;;5044101;28;20079;-63
2023/04/23 02:29:35;;;;;;;56.78;37.80;;;7.30;99.90;;;;;;5044932;28;20403;-63
2023/04/23 02:32:02;;;;;;;48.90;33.25;;;7.30;99.90;;;;;;5058482;28;20520;-62
2023/04/23 02:34:27;;;;;;;50.33;34.40;;;7.20;99.90;;;;;;5045812;28;20052;-64
2023/04/23 02:36:53;;;;;;;55.33;36.35;;;7.20;99.90;;;;;;5045812;28;20052;-63
2023/04/23 02:39:19;;;;;;;55.70;37.53;;;7.20;99.90;;;;;;5055845;28;20377;-62
2023/04/23 02:41:45;;;;;;;59.60;39.13;;;7.20;99.90;;;;;;5046511;28;20033;-65
2023/04/23 02:44:10;;;;;;;59.42;38.00;;;7.10;99.90;;;;;;5046255;28;20044;-62
2023/04/23 02:46:36;;;;;;;64.47;41.28;;;7.10;99.90;;;;;;5044596;28;20063;-62
2023/04/23 02:49:03;;;;;;;61.90;40.05;;;7.10;99.90;;;;;;5052502;28;20508;-66
2023/04/23 02:51:30;;;;;;;73.93;44.00;;;7.20;99.90;;;;;;5046936;28;20120;-63
2023/04/23 02:53:55;;;;;;;108.30;46.30;;;7.10;99.90;;;;;;5046458;28;20131;-61
2023/04/23 02:56:21;;;;;;;93.55;44.55;;;7.10;99.90;;;;;;5044740;28;20135;-64
2023/04/23 02:58:47;;;;;;;203.77;46.83;;;7.20;99.90;;;;;;5045789;28;20032;-63
2023/04/23 03:01:12;;;;;;;240.30;46.03;;;7.20;99.90;;;;;;5047392;28;20043;-63
2023/04/23 03:03:38;;;;;;;183.85;45.95;;;7.20;99.90;;;;;;5046646;28;20045;-63
2023/04/23 03:06:05;;;;;;;133.93;46.15;;;7.20;99.90;;;;;;5045844;28;20051;-62
2023/04/23 03:08:31;;;;;;;149.75;46.63;;;7.20;99.90;;;;;;5043951;28;20052;-64
2023/04/23 03:10:57;;;;;;;114.50;45.60;;;7.20;99.90;;;;;;5043082;28;20200;-64
2023/04/23 03:13:23;;;;;;;167.82;46.67;;;7.20;99.90;;;;;;5045777;28;20041;-64
2023/04/23 03:15:49;;;;;;;178.75;46.40;;;7.20;99.90;;;;;;5042251;28;20083;-62
2023/04/23 03:18:15;;;;;;;123.45;47.33;;;7.20;99.90;;;;;;5046396;28;20043;-64
2023/04/23 03:20:41;;;;;;;144.35;46.78;;;7.20;99.90;;;;;;5044166;28;20040;-63
2023/04/23 03:23:07;;;;;;;129.07;45.90;;;7.20;99.90;;;;;;5044030;28;20045;-62
2023/04/23 03:25:33;;;;;;;94.20;45.67;;;7.20;99.90;;;;;;5046652;28;20040;-63
2023/04/23 03:27:59;;;;;;;136.10;46.58;;;7.20;99.90;;;;;;5044088;28;20041;-64
2023/04/23 03:30:26;;;;;;;176.93;45.17;;;7.20;99.90;;;;;;5045196;28;20545;-66
2023/04/23 03:32:53;;;;;;;158.45;48.15;;;7.20;99.90;;;;;;5043914;28;20484;-63
2023/04/23 03:35:19;;;;;;;125.65;46.53;;;7.30;99.90;;;;;;5044612;28;20041;-62
2023/04/23 03:37:45;;;;;;;110.88;47.30;;;7.20;99.90;;;;;;5046250;28;20443;-63
2023/04/23 03:40:11;;;;;;;119.60;48.50;;;7.30;99.90;;;;;;5043966;28;20100;-62
2023/04/23 03:42:37;;;;;;;113.15;48.63;;;7.30;99.90;;;;;;5049876;28;20475;-61
2023/04/23 03:45:03;;;;;;;103.43;49.13;;;7.30;99.90;;;;;;5063680;28;20054;-63
2023/04/23 03:47:29;;;;;;;93.97;48.53;;;7.30;99.90;;;;;;5044802;28;20488;-62
2023/04/23 03:49:55;;;;;;;103.85;48.67;;;7.40;99.90;;;;;;5042948;28;20044;-64
2023/04/23 03:52:20;;;;;;;101.82;48.42;;;7.40;99.90;;;;;;5055167;28;20491;-63
2023/04/23 03:54:46;;;;;;;91.50;49.40;;;7.40;99.90;;;;;;5056816;28;20087;-62
2023/04/23 03:57:12;;;;;;;92.72;48.63;;;7.40;99.90;;;;;;5044904;28;20040;-63
2023/04/23 03:59:37;;;;;;;96.63;49.45;;;7.40;99.90;;;;;;5045852;28;20120;-64
2023/04/23 04:02:03;;;;;;;110.70;49.50;;;7.40;99.90;;;;;;5041544;28;20041;-61
2023/04/23 04:04:30;;;;;;;96.25;50.10;;;7.40;99.90;;;;;;5044503;28;20525;-63
2023/04/23 04:06:56;;;;;;;87.10;47.97;;;7.40;99.90;;;;;;5045130;28;20041;-62
2023/04/23 04:09:22;;;;;;;83.70;47.35;;;7.50;99.90;;;;;;5025125;28;21411;-66
2023/04/23 04:11:48;;;;;;;91.28;47.58;;;7.50;99.90;;;;;;5045244;28;20153;-64
2023/04/23 04:14:13;;;;;;;96.95;48.90;;;7.50;99.90;;;;;;5044835;28;20476;-62
2023/04/23 04:16:39;;;;;;;94.55;48.47;;;7.50;99.90;;;;;;5046078;28;20037;-63
2023/04/23 04:19:06;;;;;;;83.07;47.75;;;7.50;99.90;;;;;;5043506;28;20045;-61
2023/04/23 04:21:32;;;;;;;82.72;47.08;;;7.50;99.90;;;;;;5044121;28;20036;-63
2023/04/23 04:24:00;;;;;;;88.70;48.85;;;7.50;99.90;;;;;;5044672;28;20041;-64
2023/04/23 04:26:27;;;;;;;78.68;46.58;;;7.50;99.90;;;;;;5044880;28;20060;-62
2023/04/23 04:28:53;;;;;;;77.63;46.88;;;7.50;99.90;;;;;;5043097;28;20036;-66
2023/04/23 04:31:22;;;;;;;83.97;47.25;;;7.50;99.90;;;;;;5042664;28;20407;-62
2023/04/23 04:33:48;;;;;;;84.72;46.83;;;7.60;99.90;;;;;;5050630;28;20180;-65
2023/04/23 04:36:13;;;;;;;86.53;49.55;;;7.60;99.90;;;;;;5042976;28;20135;-62
2023/04/23 04:38:40;;;;;;;81.72;48.13;;;7.60;99.90;;;;;;5046329;28;20044;-61
2023/04/23 04:41:06;;;;;;;86.05;48.97;;;7.60;99.90;;;;;;5048152;28;20239;-63
2023/04/23 04:43:33;;;;;;;82.07;48.25;;;7.60;99.90;;;;;;5050018;28;20136;-62
2023/04/23 04:46:00;;;;;;;79.88;46.28;;;7.70;99.90;;;;;;5055951;28;20057;-62
2023/04/23 04:48:25;;;;;;;81.63;47.35;;;7.70;99.90;;;;;;5045426;28;20041;-64
2023/04/23 04:50:51;;;;;;;90.13;49.67;;;7.70;99.90;;;;;;5044130;28;20449;-62
2023/04/23 04:53:17;;;;;;;86.05;49.67;;;7.80;99.90;;;;;;5042164;28;20064;-62
2023/04/23 04:55:43;;;;;;;85.88;50.13;;;7.80;99.90;;;;;;5044741;28;20041;-62
2023/04/23 04:58:09;;;;;;;89.55;50.22;;;7.80;99.90;;;;;;5043347;28;20044;-63
2023/04/23 05:00:34;;;;;;;87.90;50.15;;;7.80;99.90;;;;;;5054755;28;20048;-64
2023/04/23 05:03:00;;;;;;;86.90;49.28;;;7.90;99.90;;;;;;5042690;28;20048;-63
2023/04/23 05:05:27;;;;;;;92.85;51.25;;;7.90;99.90;;;;;;5044289;28;20116;-62
2023/04/23 05:07:53;;;;;;;85.10;49.65;;;7.90;99.90;;;;;;5052315;28;20096;-64
2023/04/23 05:10:19;;;;;;;91.45;50.33;;;7.90;99.90;;;;;;5043972;28;20045;-61
2023/04/23 05:12:45;;;;;;;87.53;51.42;;;8.00;99.90;;;;;;5044673;28;20045;-63
2023/04/23 05:15:12;;;;;;;95.28;52.40;;;8.00;99.90;;;;;;5045450;28;20451;-63
2023/04/23 05:17:39;;;;;;;86.88;51.38;;;8.00;99.90;;;;;;5054003;28;20045;-62
2023/04/23 05:20:09;;;;;;;87.43;51.15;;;8.00;99.90;;;;;;5045867;28;20091;-63
2023/04/23 05:22:35;;;;;;;85.38;49.22;;;8.10;99.90;;;;;;5057879;28;20446;-62
2023/04/23 05:25:01;;;;;;;87.03;50.20;;;8.10;99.90;;;;;;5040303;28;20107;-62
2023/04/23 05:27:29;;;;;;;85.68;49.15;;;8.20;99.90;;;;;;5043329;28;20044;-62
2023/04/23 05:29:54;;;;;;;82.60;47.25;;;8.20;99.90;;;;;;5042612;28;20074;-63
2023/04/23 05:32:20;;;;;;;89.28;49.10;;;8.20;99.90;;;;;;5060977;28;20040;-65
2023/04/23 05:34:46;;;;;;;81.28;47.55;;;8.30;99.90;;;;;;5049453;28;20045;-63
2023/04/23 05:37:11;;;;;;;79.68;46.45;;;8.30;99.90;;;;;;5045390;28;20048;-62
2023/04/23 05:39:37;;;;;;;80.80;46.83;;;8.40;99.90;;;;;;5041993;28;20036;-62
2023/04/23 05:42:03;;;;;;;80.47;46.22;;;8.50;99.90;;;;;;5046186;28;20033;-63
2023/04/23 05:44:29;;;;;;;83.32;47.88;;;8.60;99.90;;;;;;5044646;28;20051;-62
2023/04/23 05:46:55;;;;;;;79.13;46.33;;;8.70;99.90;;;;;;5044371;28;20037;-63
2023/04/23 05:49:21;;;;;;;76.10;46.33;;;8.70;99.90;;;;;;5044786;28;20457;-61
2023/04/23 05:51:46;;;;;;;79.82;46.80;;;8.80;99.90;;;;;;5055184;28;20045;-61
2023/04/23 05:54:12;;;;;;;76.82;45.55;;;8.90;99.90;;;;;;5043563;28;20052;-62
2023/04/23 05:56:38;;;;;;;69.50;44.17;;;8.90;99.90;;;;;;5058863;28;20052;-63
2023/04/23 05:59:03;;;;;;;73.63;45.33;;;9.00;99.90;;;;;;5042570;28;20037;-63
2023/04/23 06:01:29;;;;;;;69.95;44.40;;;9.00;99.90;;;;;;5041164;28;20037;-63
2023/04/23 06:03:54;;;;;;;64.80;42.00;;;9.00;99.90;;;;;;5045086;28;21423;-60
2023/04/23 06:06:20;;;;;;;71.00;42.58;;;9.00;99.90;;;;;;5030908;28;20049;-64
2023/04/23 06:08:46;;;;;;;66.20;41.50;;;9.10;99.90;;;;;;5048721;28;20563;-63
2023/04/23 06:11:11;;;;;;;66.78;40.90;;;9.10;99.90;;;;;;5048042;28;20049;-63
2023/04/23 06:13:39;;;;;;;61.63;40.78;;;9.10;99.90;;;;;;5045836;28;20087;-62
2023/04/23 06:16:09;;;;;;;64.35;39.42;;;9.30;99.90;;;;;;5043777;28;20084;-65
2023/04/23 06:18:35;;;;;;;64.38;40.30;;;9.30;99.90;;;;;;5046275;28;20091;-61
2023/04/23 06:21:03;;;;;;;61.92;39.10;;;9.50;99.90;;;;;;5045363;28;20499;-63
2023/04/23 06:23:30;;;;;;;63.30;38.97;;;9.60;99.90;;;;;;5048461;28;20110;-63
2023/04/23 06:25:55;;;;;;;59.72;39.22;;;9.70;99.90;;;;;;5040777;28;20734;-63
2023/04/23 06:28:21;;;;;;;60.25;38.75;;;9.80;99.90;;;;;;5045868;28;20091;-62
2023/04/23 06:30:47;;;;;;;62.33;38.38;;;9.90;99.90;;;;;;5046881;28;20036;-62
2023/04/23 06:33:13;;;;;;;55.90;37.08;;;10.00;99.90;;;;;;5041167;28;20127;-62
2023/04/23 06:35:39;;;;;;;58.80;39.17;;;10.10;99.90;;;;;;5042743;28;20051;-64
2023/04/23 06:38:05;;;;;;;55.92;37.78;;;10.30;99.90;;;;;;5044323;28;20439;-62
2023/04/23 06:40:31;;;;;;;54.65;36.28;;;10.40;99.90;;;;;;5043536;28;20042;-63
2023/04/23 06:42:57;;;;;;;53.15;35.88;;;10.40;99.90;;;;;;5044043;28;20044;-64
2023/04/23 06:45:23;;;;;;;53.67;35.78;;;10.60;99.90;;;;;;5044279;28;20060;-63
2023/04/23 06:47:48;;;;;;;50.50;33.90;;;10.70;99.90;;;;;;5053025;28;20449;-64
2023/04/23 06:50:14;;;;;;;49.00;33.85;;;10.70;99.90;;;;;;5046423;28;20082;-63
2023/04/23 06:52:40;;;;;;;48.88;34.00;;;10.90;99.90;;;;;;5029216;28;20080;-64
2023/04/23 06:55:07;;;;;;;47.45;33.10;;;10.90;99.90;;;;;;5044963;28;20037;-62
2023/04/23 06:57:32;;;;;;;46.03;32.80;;;11.00;99.90;;;;;;5040323;28;20040;-62
2023/04/23 06:59:59;;;;;;;46.20;32.92;;;11.10;99.90;;;;;;5044694;28;20521;-63
2023/04/23 07:02:25;;;;;;;43.20;31.10;;;11.20;99.90;;;;;;5027662;28;20045;-64
2023/04/23 07:04:50;;;;;;;46.25;32.25;;;11.20;99.90;;;;;;5043595;28;20372;-65
2023/04/23 07:07:16;;;;;;;43.33;31.02;;;11.40;99.90;;;;;;5050113;28;20314;-60
2023/04/23 07:09:42;;;;;;;41.80;30.05;;;11.50;99.90;;;;;;5049904;28;20029;-64
2023/04/23 07:12:08;;;;;;;43.17;31.15;;;11.60;99.90;;;;;;5050451;28;20553;-63
2023/04/23 07:14:34;;;;;;;41.33;30.08;;;11.70;99.90;;;;;;5049307;28;20049;-63
2023/04/23 07:16:59;;;;;;;41.53;29.85;;;11.80;99.90;;;;;;5051396;28;20029;-64
2023/04/23 07:19:26;;;;;;;39.55;28.85;;;11.90;99.90;;;;;;5049697;28;20454;-65
2023/04/23 07:21:52;;;;;;;40.08;29.02;;;11.90;99.90;;;;;;5050650;28;20479;-62
2023/04/23 07:24:17;;;;;;;38.95;28.77;;;11.90;99.90;;;;;;5049891;28;20063;-62
2023/04/23 07:26:44;;;;;;;35.83;26.98;;;12.00;99.90;;;;;;5066852;28;20124;-64
2023/04/23 07:29:10;;;;;;;35.17;27.45;;;12.10;99.90;;;;;;5066980;28;20502;-63
2023/04/23 07:31:38;;;;;;;34.58;26.50;;;12.20;99.90;;;;;;5051376;28;20045;-61
2023/04/23 07:34:03;;;;;;;35.55;26.85;;;12.30;99.90;;;;;;5049799;28;20128;-63
2023/04/23 07:36:30;;;;;;;37.75;27.52;;;12.40;99.90;;;;;;5049935;28;20152;-63
2023/04/23 07:38:56;;;;;;;34.30;25.70;;;12.50;99.90;;;;;;5050024;28;20033;-63
2023/04/23 07:41:22;;;;;;;32.20;25.13;;;12.70;99.90;;;;;;5049757;28;20036;-64
2023/04/23 07:43:47;;;;;;;35.35;26.25;;;12.90;99.90;;;;;;5051168;28;20040;-62
2023/04/23 07:46:13;;;;;;;32.15;25.50;;;13.00;99.90;;;;;;5049650;28;20052;-63
2023/04/23 07:48:39;;;;;;;34.15;25.77;;;13.10;99.90;;;;;;5049543;28;20055;-61
2023/04/23 07:51:05;;;;;;;33.60;24.73;;;13.30;99.90;;;;;;5048324;28;20127;-63
2023/04/23 07:53:31;;;;;;;28.20;22.90;;;13.40;99.90;;;;;;5047266;28;20124;-62
2023/04/23 07:55:57;;;;;;;26.75;21.90;;;13.50;99.90;;;;;;5048990;28;20163;-61
2023/04/23 07:58:23;;;;;;;28.50;22.65;;;13.60;99.90;;;;;;5048700;28;20060;-62
2023/04/23 08:00:49;;;;;;;25.95;21.25;;;13.70;99.90;;;;;;5049705;28;20539;-63
2023/04/23 08:03:15;;;;;;;26.98;21.33;;;13.80;99.90;;;;;;5049840;28;20127;-62
2023/04/23 08:05:41;;;;;;;24.88;20.08;;;13.90;99.90;;;;;;5049023;28;20391;-63
2023/04/23 08:08:07;;;;;;;27.35;19.92;;;14.00;99.90;;;;;;5048345;28;20041;-64
2023/04/23 08:10:34;;;;;;;24.77;19.73;;;14.10;99.90;;;;;;5048984;28;20040;-62
2023/04/23 08:13:00;;;;;;;27.80;20.67;;;14.30;99.90;;;;;;5049783;28;20480;-61
2023/04/23 08:15:26;;;;;;;23.52;18.92;;;14.40;99.90;;;;;;5049088;28;20039;-63
2023/04/23 08:17:52;;;;;;;23.75;18.27;;;14.40;99.90;;;;;;5048848;28;20127;-63
2023/04/23 08:20:18;;;;;;;23.23;19.25;;;14.60;99.90;;;;;;5048066;28;20045;-61
2023/04/23 08:22:43;;;;;;;22.50;18.52;;;14.60;99.90;;;;;;5047552;28;20091;-62
2023/04/23 08:25:09;;;;;;;22.27;17.90;;;14.70;99.90;;;;;;5049081;28;20091;-65
2023/04/23 08:27:35;;;;;;;20.95;16.77;;;14.80;99.90;;;;;;5048773;28;20044;-65
2023/04/23 08:30:01;;;;;;;20.50;15.85;;;15.00;99.90;;;;;;5047976;28;20041;-62
2023/04/23 08:32:28;;;;;;;20.20;16.15;;;15.10;99.90;;;;;;5048006;28;20083;-64
2023/04/23 08:34:54;;;;;;;20.45;15.82;;;15.30;99.90;;;;;;5062948;28;20049;-63
2023/04/23 08:37:19;;;;;;;21.48;15.60;;;15.50;99.90;;;;;;5047983;28;20067;-62
2023/04/23 08:39:45;;;;;;;18.27;13.57;;;15.60;99.90;;;;;;5047801;28;20037;-63
2023/04/23 08:42:25;;;;;;;18.20;13.23;;;15.60;99.90;;;;;;5047790;28;20036;-64
2023/04/23 08:44:52;;;;;;;16.65;12.68;;;15.70;99.90;;;;;;5049775;28;20059;-63
2023/04/23 08:47:22;;;;;;;18.05;12.65;;;16.00;99.90;;;;;;5050414;28;20112;-65
2023/04/23 08:49:52;;;;;;;15.85;12.43;;;16.10;99.90;;;;;;5048743;28;20116;-64
2023/04/23 08:52:22;;;;;;;15.65;11.80;;;15.90;99.90;;;;;;5045357;28;20057;-65
2023/04/23 08:54:51;;;;;;;14.70;11.45;;;16.20;99.90;;;;;;5048693;28;20610;-62
2023/04/23 08:57:17;;;;;;;14.85;11.05;;;16.30;99.90;;;;;;5048087;28;20144;-65
2023/04/23 08:59:44;;;;;;;15.05;11.25;;;16.70;99.90;;;;;;5047527;28;20041;-62
2023/04/23 09:02:10;;;;;;;14.75;12.02;;;16.90;99.90;;;;;;5048863;28;20048;-63
2023/04/23 09:04:36;;;;;;;13.80;10.57;;;16.70;99.90;;;;;;5047581;28;20048;-62
2023/04/23 09:07:03;;;;;;;14.18;9.60;;;16.50;99.90;;;;;;5064867;28;20076;-64
2023/04/23 09:09:29;;;;;;;14.55;9.82;;;16.30;99.90;;;;;;5049341;28;20052;-62
2023/04/23 09:11:56;;;;;;;13.80;9.82;;;16.50;99.90;;;;;;5049988;28;20416;-63
2023/04/23 09:14:26;;;;;;;16.20;10.05;;;16.80;99.90;;;;;;5052708;28;20565;-62
2023/04/23 09:16:52;;;;;;;13.27;9.55;;;16.90;99.90;;;;;;5052060;28;20037;-64
2023/04/23 09:19:18;;;;;;;14.93;9.43;;;16.90;99.90;;;;;;5051232;28;20076;-62
2023/04/23 09:21:45;;;;;;;13.73;9.38;;;16.50;99.90;;;;;;5051698;28;20073;-65
2023/04/23 09:24:12;;;;;;;13.20;9.52;;;16.60;99.90;;;;;;5050201;28;20570;-62
2023/04/23 09:26:47;;;;;;;13.98;9.50;;;16.70;99.90;;;;;;5050630;28;20502;-63
2023/04/23 09:29:18;;;;;;;12.43;8.65;;;16.90;99.90;;;;;;5049657;28;20468;-64
2023/04/23 09:31:49;;;;;;;12.15;9.25;;;16.90;99.90;;;;;;5036227;28;20041;-64
2023/04/23 09:34:19;;;;;;;12.90;8.85;;;17.20;99.90;;;;;;5033866;28;20149;-64
2023/04/23 09:36:48;;;;;;;12.00;8.45;;;17.40;99.90;;;;;;5051332;28;20071;-61
2023/04/23 09:39:15;;;;;;;11.43;7.93;;;17.60;99.90;;;;;;5047812;28;20032;-64
2023/04/23 09:41:41;;;;;;;11.95;8.20;;;17.50;99.90;;;;;;5034658;28;20029;-60
2023/04/23 09:44:07;;;;;;;10.23;7.15;;;17.60;99.90;;;;;;5052327;28;20139;-63
2023/04/23 09:46:41;;;;;;;9.90;7.93;;;17.80;99.90;;;;;;5048363;28;20411;-65
2023/04/23 09:49:09;;;;;;;9.43;7.72;;;17.90;99.90;;;;;;5046329;28;20037;-62
2023/04/23 09:51:46;;;;;;;11.13;8.25;;;17.90;99.90;;;;;;5067498;28;20056;-63
2023/04/23 09:54:15;;;;;;;11.38;8.20;;;18.10;99.90;;;;;;5049168;28;20048;-66
2023/04/23 09:56:41;;;;;;;11.05;7.22;;;18.30;99.90;;;;;;5037290;28;20037;-64
2023/04/23 09:59:27;;;;;;;9.82;6.18;;;18.30;99.90;;;;;;5055996;28;20439;-64
2023/04/23 10:01:53;;;;;;;11.48;6.22;;;18.60;99.90;;;;;;5068323;28;20037;-65
2023/04/23 10:04:21;;;;;;;14.00;6.45;;;18.80;99.90;;;;;;5050995;28;20055;-63
2023/04/23 10:06:57;;;;;;;10.32;6.63;;;18.80;99.90;;;;;;5050543;28;20136;-61
2023/04/23 10:09:25;;;;;;;7.68;5.82;;;19.00;99.90;;;;;;5054834;28;20133;-63
2023/04/23 10:12:01;;;;;;;6.38;5.05;;;18.80;99.90;;;;;;5054130;28;20041;-63
2023/04/23 10:14:28;;;;;;;6.43;4.63;;;18.90;99.90;;;;;;5055494;28;20041;-63
2023/04/23 10:17:02;;;;;;;7.75;4.57;;;18.90;99.90;;;;;;5052166;28;20084;-62
2023/04/23 10:19:29;;;;;;;7.22;4.43;;;18.60;99.90;;;;;;5053532;28;20025;-63
2023/04/23 10:21:57;;;;;;;6.63;4.60;;;18.30;99.90;;;;;;5056120;28;20423;-64
2023/04/23 10:24:27;;;;;;;8.10;4.72;;;18.00;99.90;;;;;;5054362;28;20048;-62
2023/04/23 10:26:56;;;;;;;8.70;5.13;;;18.10;99.90;;;;;;5043401;28;20333;-66
2023/04/23 10:29:28;;;;;;;5.93;4.07;;;18.30;99.90;;;;;;5044319;28;20034;-63
2023/04/23 10:31:55;;;;;;;9.05;3.67;;;18.50;99.90;;;;;;5047544;28;20056;-63
2023/04/23 10:34:24;;;;;;;8.82;3.25;;;18.80;99.90;;;;;;5048152;28;20057;-63
2023/04/23 10:36:55;;;;;;;5.22;3.80;;;19.00;99.90;;;;;;5048092;28;20372;-62
2023/04/23 10:39:23;;;;;;;7.78;3.20;;;19.30;99.90;;;;;;5048251;28;20037;-62
2023/04/23 10:41:48;;;;;;;5.47;2.80;;;19.60;99.90;;;;;;5048966;28;20479;-62
2023/04/23 10:44:19;;;;;;;5.72;3.10;;;19.70;99.90;;;;;;5050118;28;20060;-62
2023/04/23 10:46:56;;;;;;;5.45;3.10;;;19.70;99.30;;;;;;5047370;28;20045;-64
2023/04/23 10:49:24;;;;;;;8.02;2.75;;;19.60;99.00;;;;;;5031119;28;20068;-62
2023/04/23 10:51:59;;;;;;;4.85;2.80;;;19.80;99.70;;;;;;5045294;28;20041;-63
2023/04/23 10:54:29;;;;;;;8.90;3.78;;;19.90;97.80;;;;;;5049378;28;20052;-63
2023/04/23 10:57:13;;;;;;;7.05;3.53;;;20.10;99.20;;;;;;5049045;28;20044;-62
2023/04/23 10:59:50;;;;;;;6.13;2.50;;;20.30;99.40;;;;;;5047856;28;20047;-63
2023/04/23 11:02:16;;;;;;;5.22;2.70;;;20.20;98.00;;;;;;5048378;28;20418;-64
2023/04/23 11:04:53;;;;;;;6.90;3.00;;;20.10;98.40;;;;;;5049739;28;20109;-62
2023/04/23 11:07:19;;;;;;;7.15;2.90;;;19.60;98.20;;;;;;5049456;28;20120;-62
2023/04/23 11:09:49;;;;;;;7.90;2.75;;;19.60;98.90;;;;;;5049562;28;20194;-64
2023/04/23 11:12:23;;;;;;;5.95;2.40;;;20.00;99.90;;;;;;5050476;28;20120;-62
2023/04/23 11:14:50;;;;;;;7.13;2.53;;;20.30;98.20;;;;;;5048757;28;20041;-62
2023/04/23 11:17:31;;;;;;;5.13;2.30;;;20.40;98.60;;;;;;5049678;28;20151;-63
2023/04/23 11:20:05;;;;;;;7.60;3.35;;;20.70;98.10;;;;;;5050794;28;20029;-62
2023/04/23 11:22:48;;;;;;;6.18;2.50;;;21.10;97.80;;;;;;5051796;28;20041;-61
2023/04/23 11:25:25;;;;;;;6.80;2.45;;;21.60;97.40;;;;;;5050237;28;20113;-60
2023/04/23 11:27:53;;;;;;;6.47;2.75;;;21.50;94.60;;;;;;5047397;28;20044;-62
2023/04/23 11:30:30;;;;;;;6.28;2.45;;;21.20;95.40;;;;;;5050533;28;20034;-63
2023/04/23 11:32:58;;;;;;;4.97;2.30;;;21.20;96.00;;;;;;5014245;28;20047;-63
2023/04/23 11:35:27;;;;;;;7.75;2.00;;;21.40;96.20;;;;;;5050129;28;20464;-64
2023/04/23 11:37:53;;;;;;;7.22;2.08;;;21.20;95.10;;;;;;5053105;28;20032;-65
2023/04/23 11:40:20;;;;;;;4.00;1.90;;;20.90;94.10;;;;;;5049310;28;20033;-63
2023/04/23 11:42:48;;;;;;;4.28;2.30;;;20.20;94.40;;;;;;5050670;28;20383;-64
2023/04/23 11:45:22;;;;;;;5.63;2.30;;;20.30;95.60;;;;;;5049147;28;20049;-61
2023/04/23 11:47:50;;;;;;;8.00;2.90;;;19.90;94.00;;;;;;5050213;28;20484;-62
2023/04/23 11:50:20;;;;;;;8.77;2.20;;;19.60;95.60;;;;;;5049223;28;20045;-62
2023/04/23 11:52:46;;;;;;;7.03;1.80;;;19.40;95.10;;;;;;5051516;28;20040;-64
2023/04/23 11:55:12;;;;;;;4.68;1.92;;;19.40;96.20;;;;;;5049652;28;20048;-63
2023/04/23 11:57:46;;;;;;;6.57;1.80;;;19.20;95.70;;;;;;5066877;28;20098;-64
2023/04/23 12:00:20;;;;;;;4.72;1.95;;;19.10;96.50;;;;;;5047913;28;20415;-63
2023/04/23 12:02:49;;;;;;;7.35;2.13;;;18.90;97.00;;;;;;5049226;28;20041;-62
2023/04/23 12:05:18;;;;;;;7.40;1.80;;;18.60;97.10;;;;;;5046158;28;20404;-62
2023/04/23 12:07:47;;;;;;;4.72;1.67;;;18.40;97.20;;;;;;5051495;28;20072;-63
2023/04/23 12:10:23;;;;;;;5.00;2.05;;;18.20;97.20;;;;;;5055460;28;20044;-63
2023/04/23 12:12:52;;;;;;;5.03;1.90;;;18.10;97.40;;;;;;5052030;28;20072;-61
2023/04/23 12:15:19;;;;;;;6.20;2.08;;;18.10;98.50;;;;;;5045962;28;20055;-62
2023/04/23 12:18:07;;;;;;;8.38;1.95;;;17.90;99.20;;;;;;5031758;28;20384;-65
2023/04/23 12:20:33;;;;;;;6.03;1.83;;;18.00;99.00;;;;;;5045000;28;20430;-63
2023/04/23 12:23:04;;;;;;;5.60;1.52;;;18.00;98.90;;;;;;5046006;28;20515;-64
2023/04/23 12:25:30;;;;;;;4.72;1.65;;;18.10;98.70;;;;;;5042891;28;20041;-63
2023/04/23 12:27:59;;;;;;;6.70;1.80;;;18.20;99.70;;;;;;5045636;28;20539;-62
2023/04/23 12:30:29;;;;;;;6.22;1.30;;;18.30;99.20;;;;;;5047683;28;20138;-65
2023/04/23 12:33:05;;;;;;;4.43;1.67;;;18.60;98.40;;;;;;5044010;28;20044;-64
2023/04/23 12:35:58;;;;;;;7.65;1.20;;;18.70;96.60;;;;;;5045817;28;20102;-62